APG713 RPLL-RPVK
Flight info
| Callsign | APG713 |
|---|---|
| Flight time | 0h 43m |
| Altitude | 27000 |
| Route | VERDE4V VERDE W24 TAPER TAPER1A |
| Aircraft | A320/M-SDE3FGHIRWY/LB1 |
Departure
| Time | 2026-04-30 14:12 |
|---|---|
| Airport | Ninoy Aquino International Airport (RPLL) |
Arrival
| Time | 2026-04-30 14:55 |
|---|---|
| Airport | Kalibo International Airport (RPVK) |
| Time | Latitude | Longitude | Altitude | Speed | Heading |
|---|---|---|---|---|---|
| 2026-04-30 13:42 | 14.50900 | 121.01361 | 82 ft | 0 kts | 329° |
| 2026-04-30 13:53 | 14.50894 | 121.01365 | 82 ft | 2 kts | 329° |
| 2026-04-30 13:53 | 14.50881 | 121.01373 | 82 ft | 2 kts | 329° |
| 2026-04-30 13:53 | 14.50872 | 121.01378 | 82 ft | 2 kts | 329° |
| 2026-04-30 13:54 | 14.50855 | 121.01389 | 81 ft | 2 kts | 329° |
| 2026-04-30 13:54 | 14.50842 | 121.01397 | 82 ft | 2 kts | 329° |
| 2026-04-30 13:54 | 14.50829 | 121.01405 | 82 ft | 2 kts | 329° |
| 2026-04-30 13:54 | 14.50816 | 121.01413 | 82 ft | 1 kts | 329° |
| 2026-04-30 13:55 | 14.50810 | 121.01416 | 82 ft | 1 kts | 8° |
| 2026-04-30 13:55 | 14.50804 | 121.01414 | 82 ft | 0 kts | 57° |
| 2026-04-30 13:55 | 14.50808 | 121.01418 | 82 ft | 3 kts | 52° |
| 2026-04-30 13:55 | 14.50826 | 121.01452 | 82 ft | 4 kts | 60° |
| 2026-04-30 13:56 | 14.50833 | 121.01464 | 82 ft | 0 kts | 60° |
| 2026-04-30 14:00 | 14.50838 | 121.01472 | 82 ft | 3 kts | 60° |
| 2026-04-30 14:00 | 14.50882 | 121.01553 | 82 ft | 7 kts | 60° |
| 2026-04-30 14:00 | 14.50912 | 121.01606 | 82 ft | 9 kts | 60° |
| 2026-04-30 14:01 | 14.50945 | 121.01665 | 82 ft | 9 kts | 60° |
| 2026-04-30 14:01 | 14.50957 | 121.01687 | 82 ft | 3 kts | 60° |
| 2026-04-30 14:01 | 14.50961 | 121.01694 | 82 ft | 3 kts | 60° |
| 2026-04-30 14:02 | 14.50969 | 121.01708 | 82 ft | 0 kts | 60° |
| 2026-04-30 14:03 | 14.50972 | 121.01714 | 82 ft | 7 kts | 60° |
| 2026-04-30 14:03 | 14.51017 | 121.01795 | 82 ft | 14 kts | 60° |
| 2026-04-30 14:03 | 14.51072 | 121.01865 | 82 ft | 11 kts | 11° |
| 2026-04-30 14:03 | 14.51120 | 121.01831 | 82 ft | 11 kts | 318° |
| 2026-04-30 14:04 | 14.51183 | 121.01768 | 82 ft | 13 kts | 315° |
| 2026-04-30 14:04 | 14.51254 | 121.01694 | 82 ft | 16 kts | 314° |
| 2026-04-30 14:04 | 14.51335 | 121.01610 | 82 ft | 16 kts | 315° |
| 2026-04-30 14:04 | 14.51421 | 121.01521 | 82 ft | 18 kts | 314° |
| 2026-04-30 14:05 | 14.51515 | 121.01423 | 82 ft | 19 kts | 315° |
| 2026-04-30 14:05 | 14.51610 | 121.01325 | 82 ft | 19 kts | 314° |
| 2026-04-30 14:05 | 14.51712 | 121.01220 | 82 ft | 21 kts | 314° |
| 2026-04-30 14:05 | 14.51819 | 121.01109 | 82 ft | 21 kts | 314° |
| 2026-04-30 14:06 | 14.51927 | 121.00997 | 82 ft | 22 kts | 315° |
| 2026-04-30 14:06 | 14.52104 | 121.00814 | 82 ft | 12 kts | 315° |
| 2026-04-30 14:07 | 14.52131 | 121.00786 | 82 ft | 0 kts | 315° |
| 2026-04-30 14:08 | 14.52137 | 121.00780 | 82 ft | 3 kts | 315° |
| 2026-04-30 14:08 | 14.52164 | 121.00757 | 82 ft | 6 kts | 336° |
| 2026-04-30 14:08 | 14.52279 | 121.00738 | 82 ft | 13 kts | 314° |
| 2026-04-30 14:09 | 14.52354 | 121.00661 | 82 ft | 16 kts | 315° |
| 2026-04-30 14:09 | 14.52435 | 121.00576 | 82 ft | 16 kts | 314° |
| 2026-04-30 14:09 | 14.52467 | 121.00465 | 82 ft | 10 kts | 225° |
| 2026-04-30 14:10 | 14.52408 | 121.00405 | 82 ft | 8 kts | 223° |
| 2026-04-30 14:10 | 14.52356 | 121.00410 | 82 ft | 9 kts | 131° |
| 2026-04-30 14:10 | 14.52324 | 121.00446 | 82 ft | 0 kts | 135° |
| 2026-04-30 14:11 | 14.52264 | 121.00509 | 82 ft | 47 kts | 134° |
| 2026-04-30 14:11 | 14.51813 | 121.00973 | 82 ft | 131 kts | 134° |
| 2026-04-30 14:12 | 14.51048 | 121.01765 | 460 ft | 164 kts | 134° |
| 2026-04-30 14:12 | 14.50249 | 121.02543 | 1372 ft | 162 kts | 134° |
| 2026-04-30 14:12 | 14.49452 | 121.03311 | 2193 ft | 157 kts | 131° |
| 2026-04-30 14:12 | 14.48935 | 121.03861 | 2462 ft | 165 kts | 130° |
| 2026-04-30 14:13 | 14.47803 | 121.05093 | 2948 ft | 188 kts | 130° |
| 2026-04-30 14:13 | 14.46844 | 121.06078 | 3326 ft | 206 kts | 138° |
| 2026-04-30 14:13 | 14.45395 | 121.06649 | 3609 ft | 238 kts | 176° |
| 2026-04-30 14:13 | 14.43687 | 121.06559 | 4080 ft | 256 kts | 184° |
| 2026-04-30 14:14 | 14.41833 | 121.06363 | 4564 ft | 274 kts | 183° |
| 2026-04-30 14:14 | 14.39884 | 121.06188 | 5216 ft | 284 kts | 182° |
| 2026-04-30 14:14 | 14.37899 | 121.06053 | 5948 ft | 288 kts | 181° |
| 2026-04-30 14:14 | 14.35901 | 121.05948 | 6720 ft | 291 kts | 180° |
| 2026-04-30 14:15 | 14.33858 | 121.05858 | 7536 ft | 293 kts | 180° |
| 2026-04-30 14:15 | 14.31816 | 121.05779 | 8290 ft | 295 kts | 179° |
| 2026-04-30 14:15 | 14.29775 | 121.05707 | 9025 ft | 297 kts | 179° |
| 2026-04-30 14:15 | 14.27702 | 121.05636 | 9767 ft | 298 kts | 179° |
| 2026-04-30 14:16 | 14.25623 | 121.05569 | 10422 ft | 302 kts | 179° |
| 2026-04-30 14:16 | 14.23462 | 121.05502 | 10773 ft | 317 kts | 179° |
| 2026-04-30 14:16 | 14.21184 | 121.05433 | 11042 ft | 333 kts | 179° |
| 2026-04-30 14:16 | 14.18796 | 121.05358 | 11322 ft | 349 kts | 180° |
| 2026-04-30 14:17 | 14.16332 | 121.05280 | 11659 ft | 360 kts | 180° |
| 2026-04-30 14:17 | 14.13786 | 121.05198 | 12200 ft | 363 kts | 180° |
| 2026-04-30 14:17 | 14.11238 | 121.05115 | 12752 ft | 366 kts | 180° |
| 2026-04-30 14:17 | 14.08684 | 121.05052 | 13275 ft | 368 kts | 177° |
| 2026-04-30 14:18 | 14.06147 | 121.05561 | 13759 ft | 368 kts | 157° |
| 2026-04-30 14:18 | 14.03811 | 121.06643 | 14299 ft | 368 kts | 152° |
| 2026-04-30 14:18 | 13.99182 | 121.08976 | 15286 ft | 374 kts | 153° |
| 2026-04-30 14:19 | 13.94428 | 121.11256 | 16233 ft | 379 kts | 154° |
| 2026-04-30 14:19 | 13.92006 | 121.12386 | 16694 ft | 381 kts | 154° |
| 2026-04-30 14:19 | 13.89551 | 121.13519 | 17143 ft | 384 kts | 154° |
| 2026-04-30 14:20 | 13.87117 | 121.14637 | 17571 ft | 386 kts | 154° |
| 2026-04-30 14:20 | 13.84653 | 121.15763 | 17995 ft | 388 kts | 154° |
| 2026-04-30 14:20 | 13.79680 | 121.18033 | 18798 ft | 393 kts | 155° |
| 2026-04-30 14:21 | 13.77166 | 121.19177 | 19184 ft | 396 kts | 155° |
| 2026-04-30 14:21 | 13.74636 | 121.20329 | 19569 ft | 398 kts | 155° |
| 2026-04-30 14:21 | 13.69515 | 121.22659 | 20305 ft | 403 kts | 155° |
| 2026-04-30 14:22 | 13.66940 | 121.23829 | 20676 ft | 405 kts | 155° |
| 2026-04-30 14:22 | 13.61867 | 121.26133 | 21359 ft | 409 kts | 155° |
| 2026-04-30 14:22 | 13.59282 | 121.27306 | 21707 ft | 411 kts | 155° |
| 2026-04-30 14:23 | 13.53993 | 121.29707 | 22370 ft | 416 kts | 155° |
| 2026-04-30 14:23 | 13.48661 | 121.32130 | 23042 ft | 420 kts | 155° |
| 2026-04-30 14:24 | 13.43296 | 121.34563 | 23703 ft | 423 kts | 155° |
| 2026-04-30 14:24 | 13.40594 | 121.35788 | 24036 ft | 425 kts | 155° |
| 2026-04-30 14:25 | 13.35153 | 121.38253 | 24665 ft | 429 kts | 156° |
| 2026-04-30 14:25 | 13.29656 | 121.40744 | 25261 ft | 433 kts | 156° |
| 2026-04-30 14:26 | 13.24098 | 121.43260 | 25840 ft | 437 kts | 156° |
| 2026-04-30 14:26 | 13.21274 | 121.44538 | 26133 ft | 439 kts | 156° |
| 2026-04-30 14:26 | 13.15648 | 121.47083 | 26703 ft | 442 kts | 156° |
| 2026-04-30 14:27 | 13.12818 | 121.48363 | 26922 ft | 444 kts | 156° |
| 2026-04-30 14:27 | 13.09996 | 121.49638 | 26938 ft | 444 kts | 156° |
| 2026-04-30 14:27 | 13.07152 | 121.50923 | 26941 ft | 444 kts | 156° |
| 2026-04-30 14:28 | 13.01468 | 121.53491 | 26937 ft | 443 kts | 156° |
| 2026-04-30 14:28 | 12.98634 | 121.54771 | 26936 ft | 443 kts | 156° |
| 2026-04-30 14:28 | 12.95838 | 121.56034 | 26934 ft | 444 kts | 156° |
| 2026-04-30 14:28 | 12.93006 | 121.57313 | 26931 ft | 443 kts | 156° |
| 2026-04-30 14:29 | 12.87337 | 121.59872 | 26932 ft | 443 kts | 156° |
| 2026-04-30 14:29 | 12.82586 | 121.62015 | 26929 ft | 443 kts | 156° |
| 2026-04-30 14:30 | 12.73158 | 121.66266 | 26842 ft | 443 kts | 156° |
| 2026-04-30 14:31 | 12.67512 | 121.68810 | 26342 ft | 439 kts | 156° |
| 2026-04-30 14:31 | 12.61946 | 121.71316 | 25843 ft | 435 kts | 156° |
| 2026-04-30 14:31 | 12.59155 | 121.72573 | 25595 ft | 434 kts | 156° |
| 2026-04-30 14:32 | 12.53624 | 121.75064 | 25054 ft | 431 kts | 155° |
| 2026-04-30 14:32 | 12.50921 | 121.76279 | 24763 ft | 422 kts | 155° |
| 2026-04-30 14:32 | 12.48276 | 121.77470 | 24558 ft | 409 kts | 155° |
| 2026-04-30 14:33 | 12.45699 | 121.78629 | 24408 ft | 394 kts | 155° |
| 2026-04-30 14:33 | 12.40840 | 121.80816 | 24197 ft | 366 kts | 155° |
| 2026-04-30 14:33 | 12.38543 | 121.81870 | 24099 ft | 357 kts | 152° |
| 2026-04-30 14:34 | 12.36397 | 121.83079 | 23966 ft | 350 kts | 147° |
| 2026-04-30 14:34 | 12.34394 | 121.84485 | 23564 ft | 349 kts | 141° |
| 2026-04-30 14:34 | 12.32472 | 121.86028 | 23147 ft | 347 kts | 140° |
| 2026-04-30 14:34 | 12.30593 | 121.87563 | 22754 ft | 344 kts | 140° |
| 2026-04-30 14:35 | 12.26899 | 121.90579 | 22004 ft | 338 kts | 140° |
| 2026-04-30 14:35 | 12.25052 | 121.92084 | 21624 ft | 335 kts | 139° |
| 2026-04-30 14:35 | 12.23702 | 121.93179 | 21350 ft | 333 kts | 139° |
| 2026-04-30 14:36 | 12.22031 | 121.94537 | 21004 ft | 331 kts | 139° |
| 2026-04-30 14:36 | 12.20235 | 121.95995 | 20625 ft | 329 kts | 139° |
| 2026-04-30 14:36 | 12.18443 | 121.97451 | 20241 ft | 328 kts | 139° |
| 2026-04-30 14:36 | 12.16669 | 121.98891 | 19848 ft | 326 kts | 139° |
| 2026-04-30 14:37 | 12.14885 | 122.00337 | 19454 ft | 325 kts | 139° |
| 2026-04-30 14:37 | 12.13107 | 122.01779 | 19049 ft | 324 kts | 139° |
| 2026-04-30 14:37 | 12.11357 | 122.03195 | 18658 ft | 323 kts | 139° |
| 2026-04-30 14:37 | 12.09612 | 122.04646 | 18264 ft | 321 kts | 134° |
| 2026-04-30 14:38 | 12.08129 | 122.06328 | 17877 ft | 317 kts | 124° |
| 2026-04-30 14:38 | 12.06985 | 122.08235 | 17494 ft | 314 kts | 116° |
| 2026-04-30 14:38 | 12.05985 | 122.10226 | 17117 ft | 313 kts | 115° |
| 2026-04-30 14:38 | 12.05014 | 122.12200 | 16736 ft | 311 kts | 115° |
| 2026-04-30 14:39 | 12.04046 | 122.14165 | 16358 ft | 310 kts | 115° |
| 2026-04-30 14:39 | 12.03077 | 122.16122 | 15975 ft | 309 kts | 115° |
| 2026-04-30 14:39 | 12.02104 | 122.18081 | 15578 ft | 309 kts | 115° |
| 2026-04-30 14:40 | 12.00157 | 122.21990 | 14778 ft | 308 kts | 115° |
| 2026-04-30 14:40 | 11.99183 | 122.23943 | 14378 ft | 308 kts | 115° |
| 2026-04-30 14:40 | 11.98217 | 122.25877 | 13986 ft | 307 kts | 115° |
| 2026-04-30 14:40 | 11.97245 | 122.27825 | 13590 ft | 306 kts | 114° |
| 2026-04-30 14:41 | 11.96281 | 122.29755 | 13199 ft | 305 kts | 114° |
| 2026-04-30 14:41 | 11.95317 | 122.31686 | 12812 ft | 303 kts | 115° |
| 2026-04-30 14:41 | 11.94366 | 122.33590 | 12438 ft | 301 kts | 114° |
| 2026-04-30 14:41 | 11.93418 | 122.35487 | 12068 ft | 299 kts | 114° |
| 2026-04-30 14:42 | 11.92481 | 122.37360 | 11703 ft | 296 kts | 115° |
| 2026-04-30 14:42 | 11.91551 | 122.39220 | 11337 ft | 294 kts | 114° |
| 2026-04-30 14:42 | 11.90630 | 122.41062 | 10971 ft | 291 kts | 115° |
| 2026-04-30 14:42 | 11.89700 | 122.42902 | 10610 ft | 289 kts | 116° |
| 2026-04-30 14:43 | 11.88681 | 122.44674 | 10253 ft | 287 kts | 119° |
| 2026-04-30 14:43 | 11.87655 | 122.46398 | 9902 ft | 284 kts | 119° |
| 2026-04-30 14:43 | 11.86633 | 122.48109 | 9550 ft | 282 kts | 119° |
| 2026-04-30 14:43 | 11.85599 | 122.49804 | 9191 ft | 281 kts | 123° |
| 2026-04-30 14:44 | 11.84121 | 122.51115 | 8789 ft | 286 kts | 152° |
| 2026-04-30 14:44 | 11.82175 | 122.51545 | 8406 ft | 292 kts | 179° |
| 2026-04-30 14:44 | 11.80207 | 122.51003 | 8029 ft | 297 kts | 205° |
| 2026-04-30 14:44 | 11.78417 | 122.49891 | 7671 ft | 297 kts | 209° |
| 2026-04-30 14:45 | 11.76683 | 122.48775 | 7309 ft | 295 kts | 209° |
| 2026-04-30 14:45 | 11.74930 | 122.47665 | 6956 ft | 294 kts | 209° |
| 2026-04-30 14:45 | 11.73207 | 122.46587 | 6611 ft | 292 kts | 208° |
| 2026-04-30 14:45 | 11.71458 | 122.45504 | 6254 ft | 291 kts | 208° |
| 2026-04-30 14:46 | 11.69727 | 122.44443 | 5901 ft | 289 kts | 207° |
| 2026-04-30 14:46 | 11.67930 | 122.43495 | 5553 ft | 287 kts | 202° |
| 2026-04-30 14:46 | 11.66132 | 122.42627 | 5218 ft | 285 kts | 202° |
| 2026-04-30 14:46 | 11.64329 | 122.41769 | 4883 ft | 284 kts | 202° |
| 2026-04-30 14:47 | 11.62552 | 122.40919 | 4550 ft | 283 kts | 202° |
| 2026-04-30 14:47 | 11.60773 | 122.40069 | 4217 ft | 282 kts | 202° |
| 2026-04-30 14:47 | 11.59001 | 122.39219 | 3886 ft | 280 kts | 202° |
| 2026-04-30 14:47 | 11.57228 | 122.38368 | 3608 ft | 276 kts | 202° |
| 2026-04-30 14:48 | 11.55508 | 122.37542 | 3542 ft | 276 kts | 202° |
| 2026-04-30 14:48 | 11.53745 | 122.36697 | 3502 ft | 276 kts | 202° |
| 2026-04-30 14:48 | 11.52010 | 122.35860 | 3442 ft | 276 kts | 205° |
| 2026-04-30 14:48 | 11.50533 | 122.34628 | 3362 ft | 281 kts | 236° |
| 2026-04-30 14:49 | 11.49898 | 122.32787 | 3403 ft | 270 kts | 263° |
| 2026-04-30 14:49 | 11.49731 | 122.30949 | 3411 ft | 255 kts | 266° |
| 2026-04-30 14:49 | 11.49557 | 122.29197 | 3425 ft | 241 kts | 265° |
| 2026-04-30 14:49 | 11.49639 | 122.27573 | 3389 ft | 222 kts | 297° |
| 2026-04-30 14:50 | 11.51847 | 122.26162 | 3426 ft | 188 kts | 355° |
| 2026-04-30 14:50 | 11.53157 | 122.25911 | 3423 ft | 189 kts | 354° |
| 2026-04-30 14:51 | 11.55734 | 122.25468 | 3130 ft | 181 kts | 17° |
| 2026-04-30 14:51 | 11.56799 | 122.25976 | 2933 ft | 159 kts | 39° |
| 2026-04-30 14:51 | 11.58592 | 122.27255 | 2596 ft | 154 kts | 38° |
| 2026-04-30 14:52 | 11.59483 | 122.27876 | 2496 ft | 154 kts | 39° |
| 2026-04-30 14:52 | 11.60978 | 122.29408 | 2101 ft | 151 kts | 51° |
| 2026-04-30 14:52 | 11.61651 | 122.30200 | 1852 ft | 143 kts | 51° |
| 2026-04-30 14:53 | 11.62935 | 122.31703 | 1423 ft | 139 kts | 52° |
| 2026-04-30 14:53 | 11.63571 | 122.32448 | 1220 ft | 138 kts | 52° |
| 2026-04-30 14:54 | 11.64829 | 122.33916 | 815 ft | 137 kts | 50° |
| 2026-04-30 14:54 | 11.66094 | 122.35383 | 405 ft | 137 kts | 51° |
| 2026-04-30 14:55 | 11.67331 | 122.36827 | 50 ft | 131 kts | 49° |
| 2026-04-30 14:55 | 11.67842 | 122.37421 | 44 ft | 88 kts | 49° |
| 2026-04-30 14:55 | 11.68284 | 122.37936 | 43 ft | 31 kts | 48° |
| 2026-04-30 14:56 | 11.68467 | 122.38129 | 41 ft | 8 kts | 341° |
| 2026-04-30 14:56 | 11.68548 | 122.38103 | 41 ft | 1 kts | 350° |
| 2026-04-30 14:57 | 11.68549 | 122.38103 | 41 ft | 0 kts | 349° |